sensor_id;sensor_type;location;lat;lon;timestamp;P1;durP1;ratioP1;P2;durP2;ratioP2
38248;SDS011;24045;51.138;17.126;2023-03-29T00:04:38;46.20;;;19.90;;
38248;SDS011;24045;51.138;17.126;2023-03-29T00:19:43;49.60;;;24.90;;
38248;SDS011;24045;51.138;17.126;2023-03-29T00:34:47;63.10;;;28.10;;
38248;SDS011;24045;51.138;17.126;2023-03-29T00:49:52;48.60;;;25.90;;
38248;SDS011;24045;51.138;17.126;2023-03-29T01:04:58;46.30;;;23.20;;
38248;SDS011;24045;51.138;17.126;2023-03-29T01:20:09;59.30;;;31.50;;
38248;SDS011;24045;51.138;17.126;2023-03-29T01:35:26;69.10;;;35.70;;
38248;SDS011;24045;51.138;17.126;2023-03-29T01:50:37;73.70;;;33.50;;
38248;SDS011;24045;51.138;17.126;2023-03-29T02:06:14;58.50;;;32.60;;
38248;SDS011;24045;51.138;17.126;2023-03-29T02:21:23;57.10;;;28.90;;
38248;SDS011;24045;51.138;17.126;2023-03-29T02:51:39;56.80;;;29.50;;
38248;SDS011;24045;51.138;17.126;2023-03-29T03:06:42;59.20;;;31.70;;
38248;SDS011;24045;51.138;17.126;2023-03-29T03:21:45;53.80;;;28.60;;
38248;SDS011;24045;51.138;17.126;2023-03-29T03:36:48;46.90;;;25.70;;
38248;SDS011;24045;51.138;17.126;2023-03-29T03:51:51;51.20;;;26.40;;
38248;SDS011;24045;51.138;17.126;2023-03-29T04:06:54;43.70;;;22.70;;
38248;SDS011;24045;51.138;17.126;2023-03-29T04:22:04;32.90;;;16.90;;
38248;SDS011;24045;51.138;17.126;2023-03-29T04:37:06;39.30;;;20.70;;
38248;SDS011;24045;51.138;17.126;2023-03-29T04:52:12;39.40;;;21.20;;
38248;SDS011;24045;51.138;17.126;2023-03-29T05:07:16;60.00;;;32.10;;
38248;SDS011;24045;51.138;17.126;2023-03-29T05:22:19;38.00;;;23.20;;
38248;SDS011;24045;51.138;17.126;2023-03-29T05:37:23;38.20;;;21.70;;
38248;SDS011;24045;51.138;17.126;2023-03-29T05:52:25;41.30;;;22.10;;
38248;SDS011;24045;51.138;17.126;2023-03-29T06:07:28;32.10;;;16.10;;
38248;SDS011;24045;51.138;17.126;2023-03-29T06:22:32;24.80;;;13.50;;
38248;SDS011;24045;51.138;17.126;2023-03-29T06:52:38;20.80;;;9.80;;
38248;SDS011;24045;51.138;17.126;2023-03-29T07:22:56;14.30;;;7.60;;
38248;SDS011;24045;51.138;17.126;2023-03-29T07:37:59;13.30;;;7.70;;
38248;SDS011;24045;51.138;17.126;2023-03-29T07:53:02;12.60;;;6.50;;
38248;SDS011;24045;51.138;17.126;2023-03-29T08:23:08;13.40;;;6.30;;
38248;SDS011;24045;51.138;17.126;2023-03-29T08:53:15;10.30;;;3.90;;
38248;SDS011;24045;51.138;17.126;2023-03-29T09:08:22;9.20;;;3.40;;
38248;SDS011;24045;51.138;17.126;2023-03-29T09:38:40;8.50;;;4.10;;
38248;SDS011;24045;51.138;17.126;2023-03-29T09:53:45;10.10;;;3.90;;
38248;SDS011;24045;51.138;17.126;2023-03-29T10:08:49;9.50;;;4.30;;
38248;SDS011;24045;51.138;17.126;2023-03-29T10:23:57;12.00;;;4.80;;
38248;SDS011;24045;51.138;17.126;2023-03-29T10:39:03;8.90;;;4.70;;
38248;SDS011;24045;51.138;17.126;2023-03-29T10:54:08;10.60;;;5.40;;
38248;SDS011;24045;51.138;17.126;2023-03-29T11:09:19;10.70;;;5.50;;
38248;SDS011;24045;51.138;17.126;2023-03-29T11:24:45;15.30;;;5.10;;
38248;SDS011;24045;51.138;17.126;2023-03-29T11:55:44;11.20;;;4.20;;
38248;SDS011;24045;51.138;17.126;2023-03-29T12:26:40;11.30;;;4.90;;
38248;SDS011;24045;51.138;17.126;2023-03-29T12:41:49;9.50;;;4.30;;
38248;SDS011;24045;51.138;17.126;2023-03-29T12:56:55;9.10;;;4.50;;
38248;SDS011;24045;51.138;17.126;2023-03-29T13:57:40;10.90;;;4.90;;
38248;SDS011;24045;51.138;17.126;2023-03-29T14:12:48;13.10;;;5.10;;
38248;SDS011;24045;51.138;17.126;2023-03-29T14:27:51;10.80;;;4.30;;
38248;SDS011;24045;51.138;17.126;2023-03-29T14:42:54;9.90;;;4.30;;
38248;SDS011;24045;51.138;17.126;2023-03-29T14:57:56;8.90;;;4.10;;
38248;SDS011;24045;51.138;17.126;2023-03-29T15:13:02;10.10;;;4.50;;
38248;SDS011;24045;51.138;17.126;2023-03-29T15:28:19;9.50;;;3.90;;
38248;SDS011;24045;51.138;17.126;2023-03-29T15:43:26;11.50;;;5.60;;
38248;SDS011;24045;51.138;17.126;2023-03-29T15:58:30;9.90;;;4.40;;
38248;SDS011;24045;51.138;17.126;2023-03-29T16:13:34;10.50;;;5.10;;
38248;SDS011;24045;51.138;17.126;2023-03-29T16:28:38;10.40;;;5.80;;
38248;SDS011;24045;51.138;17.126;2023-03-29T16:43:41;11.30;;;5.50;;
38248;SDS011;24045;51.138;17.126;2023-03-29T16:58:45;12.90;;;7.50;;
38248;SDS011;24045;51.138;17.126;2023-03-29T17:13:48;13.70;;;6.60;;
38248;SDS011;24045;51.138;17.126;2023-03-29T17:28:52;11.50;;;6.10;;
38248;SDS011;24045;51.138;17.126;2023-03-29T17:43:54;12.50;;;7.30;;
38248;SDS011;24045;51.138;17.126;2023-03-29T18:14:00;16.50;;;8.70;;
38248;SDS011;24045;51.138;17.126;2023-03-29T18:29:06;17.50;;;8.70;;
38248;SDS011;24045;51.138;17.126;2023-03-29T18:44:11;14.40;;;8.50;;
38248;SDS011;24045;51.138;17.126;2023-03-29T18:59:15;17.70;;;9.70;;
38248;SDS011;24045;51.138;17.126;2023-03-29T19:14:18;16.20;;;9.00;;
38248;SDS011;24045;51.138;17.126;2023-03-29T19:29:25;15.30;;;9.20;;
38248;SDS011;24045;51.138;17.126;2023-03-29T19:44:27;15.80;;;9.20;;
38248;SDS011;24045;51.138;17.126;2023-03-29T20:14:33;15.20;;;9.20;;
38248;SDS011;24045;51.138;17.126;2023-03-29T20:59:41;19.20;;;11.10;;
38248;SDS011;24045;51.138;17.126;2023-03-29T21:14:45;17.10;;;10.10;;
38248;SDS011;24045;51.138;17.126;2023-03-29T21:29:49;20.00;;;10.30;;
38248;SDS011;24045;51.138;17.126;2023-03-29T21:44:51;14.80;;;8.80;;
38248;SDS011;24045;51.138;17.126;2023-03-29T21:59:54;16.80;;;10.30;;
38248;SDS011;24045;51.138;17.126;2023-03-29T22:14:58;17.40;;;10.40;;
38248;SDS011;24045;51.138;17.126;2023-03-29T22:45:04;19.30;;;10.30;;
38248;SDS011;24045;51.138;17.126;2023-03-29T23:00:08;14.90;;;9.00;;
38248;SDS011;24045;51.138;17.126;2023-03-29T23:15:11;17.30;;;9.70;;
38248;SDS011;24045;51.138;17.126;2023-03-29T23:45:17;16.50;;;8.80;;
